Time;durP1;ratioP1;P1;durP2;ratioP2;P2;SDS_P1;SDS_P2;PMS_P1;PMS_P2;Temp;Humidity;BMP_temperature;BMP_pressure;BME280_temperature;BME280_humidity;BME280_pressure;Samples;Min_cycle;Max_cycle;Signal;HPM_P1;HPM_P2
2022/10/02 00:02:05;;;;;;;7.57;4.82;;;17.60;67.00;;;;;;5051343;28;20615;-68
2022/10/02 00:04:53;;;;;;;6.82;4.78;;;17.60;67.00;;;;;;5052196;28;20221;-68
2022/10/02 00:07:19;;;;;;;8.25;5.65;;;17.60;67.00;;;;;;5030936;28;20183;-67
2022/10/02 00:09:54;;;;;;;8.13;4.65;;;17.60;66.90;;;;;;5031320;28;20176;-68
2022/10/02 00:12:22;;;;;;;8.00;4.90;;;17.60;66.90;;;;;;5029901;28;20226;-68
2022/10/02 00:14:49;;;;;;;8.73;4.97;;;17.60;66.80;;;;;;5031318;28;20195;-68
2022/10/02 00:17:23;;;;;;;7.68;5.32;;;17.60;66.80;;;;;;5050745;28;20194;-68
2022/10/02 00:19:54;;;;;;;11.10;5.47;;;17.60;66.80;;;;;;5051338;28;20179;-68
2022/10/02 00:22:55;;;;;;;8.63;5.22;;;17.70;67.00;;;;;;5051832;28;20179;-68
2022/10/02 00:25:38;;;;;;;7.35;4.88;;;17.60;66.80;;;;;;5028553;28;20226;-68
2022/10/02 00:28:18;;;;;;;8.35;4.60;;;17.60;66.70;;;;;;5050165;28;20576;-68
2022/10/02 00:31:19;;;;;;;7.03;5.00;;;17.60;66.70;;;;;;5050999;28;20228;-68
2022/10/02 00:34:11;;;;;;;8.23;4.50;;;17.60;66.70;;;;;;5028826;28;20170;-67
2022/10/02 00:36:53;;;;;;;6.75;4.32;;;17.60;66.70;;;;;;5034454;28;20210;-68
2022/10/02 00:39:25;;;;;;;6.80;3.90;;;17.60;66.70;;;;;;5055157;28;20175;-68
2022/10/02 00:42:12;;;;;;;7.35;4.53;;;17.60;66.60;;;;;;5054022;28;20175;-68
2022/10/02 00:45:12;;;;;;;6.88;4.20;;;17.60;66.50;;;;;;5054414;28;20207;-69
2022/10/02 00:47:48;;;;;;;8.40;4.60;;;17.60;66.40;;;;;;5055491;28;20177;-68
2022/10/02 00:50:38;;;;;;;7.13;4.50;;;17.60;66.40;;;;;;5058602;28;20643;-67
2022/10/02 00:53:11;;;;;;;7.70;3.80;;;17.60;66.50;;;;;;5074136;28;20621;-68
2022/10/02 00:55:54;;;;;;;11.55;4.97;;;17.60;66.40;;;;;;5053468;28;20622;-68
2022/10/02 00:58:39;;;;;;;6.68;4.10;;;17.60;66.40;;;;;;5054253;28;20183;-68
2022/10/02 01:01:11;;;;;;;5.88;3.67;;;17.60;66.40;;;;;;5053223;28;20175;-69
2022/10/02 01:03:46;;;;;;;6.82;4.30;;;17.60;66.40;;;;;;5053989;28;20185;-68
2022/10/02 01:06:12;;;;;;;5.88;3.80;;;17.60;66.40;;;;;;5053755;28;20321;-67
2022/10/02 01:08:37;;;;;;;6.50;4.40;;;17.60;66.40;;;;;;5053431;28;20639;-67
2022/10/02 01:11:03;;;;;;;7.80;4.25;;;17.60;66.40;;;;;;5054157;28;20253;-67
2022/10/02 01:13:29;;;;;;;6.65;3.95;;;17.60;66.40;;;;;;5053807;28;20706;-68
2022/10/02 01:15:55;;;;;;;5.13;3.80;;;17.60;66.40;;;;;;5053037;28;20175;-67
2022/10/02 01:18:21;;;;;;;5.18;3.30;;;17.60;66.40;;;;;;5052786;28;20232;-68
2022/10/02 01:20:48;;;;;;;6.57;3.75;;;17.60;66.40;;;;;;5055191;28;20627;-68
2022/10/02 01:23:30;;;;;;;4.80;3.45;;;17.60;66.50;;;;;;5053739;28;20262;-68
2022/10/02 01:25:57;;;;;;;6.10;3.92;;;17.50;66.40;;;;;;5053691;28;20178;-68
2022/10/02 01:28:22;;;;;;;6.22;3.88;;;17.60;66.40;;;;;;5053870;28;20258;-68
2022/10/02 01:30:50;;;;;;;6.97;4.28;;;17.50;66.40;;;;;;5053020;28;20333;-67
2022/10/02 01:33:16;;;;;;;8.90;4.30;;;17.50;66.30;;;;;;5053156;28;20184;-67
2022/10/02 01:35:41;;;;;;;6.25;4.22;;;17.60;66.40;;;;;;5053896;28;20175;-67
2022/10/02 01:38:09;;;;;;;5.45;3.80;;;17.50;66.30;;;;;;5034873;28;20186;-69
2022/10/02 01:40:36;;;;;;;5.60;3.80;;;17.50;66.40;;;;;;5036391;28;20175;-68
2022/10/02 01:43:09;;;;;;;6.93;3.90;;;17.50;66.30;;;;;;5053683;28;20276;-68
2022/10/02 01:45:50;;;;;;;5.38;4.07;;;17.50;66.40;;;;;;5053964;28;20199;-68
2022/10/02 01:48:22;;;;;;;6.88;3.67;;;17.50;66.40;;;;;;5069411;28;20198;-68
2022/10/02 01:51:26;;;;;;;5.30;3.10;;;17.50;66.30;;;;;;5056766;28;20235;-67
2022/10/02 01:54:15;;;;;;;6.15;3.75;;;17.50;66.30;;;;;;5037764;28;20652;-67
2022/10/02 01:57:00;;;;;;;5.03;3.42;;;17.50;66.40;;;;;;5054177;28;20221;-67
2022/10/02 01:59:35;;;;;;;7.45;3.95;;;17.50;66.30;;;;;;5052643;28;20171;-67
2022/10/02 02:02:16;;;;;;;6.43;3.95;;;17.50;66.40;;;;;;5052967;28;20281;-68
2022/10/02 02:04:44;;;;;;;5.35;3.55;;;17.50;66.30;;;;;;5052339;28;20249;-67
2022/10/02 02:07:18;;;;;;;7.38;3.53;;;17.50;66.30;;;;;;5053145;28;20742;-67
2022/10/02 02:09:52;;;;;;;5.47;3.08;;;17.50;66.30;;;;;;5052933;28;20578;-67
2022/10/02 02:12:19;;;;;;;3.90;3.17;;;17.50;66.40;;;;;;5052101;28;20244;-68
2022/10/02 02:14:47;;;;;;;5.53;3.50;;;17.50;66.40;;;;;;5052443;28;20598;-68
2022/10/02 02:17:19;;;;;;;4.60;3.50;;;17.50;66.40;;;;;;5053280;28;20215;-68
2022/10/02 02:20:00;;;;;;;4.22;3.50;;;17.50;66.40;;;;;;5032191;28;20172;-68
2022/10/02 02:22:27;;;;;;;5.80;3.28;;;17.50;66.30;;;;;;5032413;28;20176;-68
2022/10/02 02:24:58;;;;;;;7.25;3.92;;;17.50;66.30;;;;;;5032612;28;20215;-68
2022/10/02 02:27:25;;;;;;;5.03;3.20;;;17.50;66.40;;;;;;5049847;28;20179;-67
2022/10/02 02:29:53;;;;;;;4.45;3.33;;;17.50;66.30;;;;;;5052364;28;20183;-67
2022/10/02 02:32:21;;;;;;;6.65;3.65;;;17.50;66.30;;;;;;5051220;28;20634;-66
2022/10/02 02:35:08;;;;;;;4.53;3.38;;;17.50;66.30;;;;;;5035733;28;20175;-67
2022/10/02 02:37:35;;;;;;;4.63;3.17;;;17.50;66.40;;;;;;5035222;28;20270;-67
2022/10/02 02:40:11;;;;;;;5.82;3.13;;;17.50;66.30;;;;;;5051050;28;20258;-68
2022/10/02 02:42:41;;;;;;;5.10;3.60;;;17.50;66.40;;;;;;5051897;28;20587;-67
2022/10/02 02:45:13;;;;;;;7.28;3.85;;;17.50;66.30;;;;;;5051537;28;20669;-67
2022/10/02 02:47:53;;;;;;;5.40;3.30;;;17.50;66.30;;;;;;5061663;28;20704;-67
2022/10/02 02:50:19;;;;;;;5.93;3.88;;;17.50;66.40;;;;;;5055735;28;20212;-67
2022/10/02 02:52:51;;;;;;;6.03;3.45;;;17.50;66.30;;;;;;5072770;28;20175;-67
2022/10/02 02:55:16;;;;;;;5.60;3.28;;;17.50;66.30;;;;;;5037730;28;20270;-67
2022/10/02 02:57:52;;;;;;;6.00;3.33;;;17.50;66.30;;;;;;5052848;28;20265;-68
2022/10/02 03:00:18;;;;;;;3.85;2.95;;;17.50;66.40;;;;;;5050864;28;20178;-67
2022/10/02 03:02:44;;;;;;;6.38;3.38;;;17.50;66.40;;;;;;5050917;28;20171;-67
2022/10/02 03:05:17;;;;;;;4.55;3.42;;;17.50;66.40;;;;;;5051316;28;20219;-67
2022/10/02 03:07:53;;;;;;;4.95;3.53;;;17.50;66.40;;;;;;5050293;28;20657;-67
2022/10/02 03:10:25;;;;;;;4.05;3.17;;;17.50;66.40;;;;;;5051427;28;20197;-68
2022/10/02 03:13:14;;;;;;;7.20;3.42;;;17.50;66.40;;;;;;5051285;28;20302;-68
2022/10/02 03:16:06;;;;;;;4.53;3.38;;;17.50;66.40;;;;;;5048290;28;20249;-68
2022/10/02 03:18:57;;;;;;;4.90;3.17;;;17.50;66.40;;;;;;5048827;28;20183;-67
2022/10/02 03:21:44;;;;;;;7.55;3.67;;;17.40;66.30;;;;;;5051472;28;20179;-67
2022/10/02 03:24:34;;;;;;;5.70;3.28;;;17.40;66.30;;;;;;5051929;28;20853;-68
2022/10/02 03:27:12;;;;;;;5.70;3.08;;;17.40;66.30;;;;;;5050738;28;20175;-68
2022/10/02 03:29:39;;;;;;;5.38;2.95;;;17.40;66.30;;;;;;5050404;28;20568;-67
2022/10/02 03:32:05;;;;;;;6.03;3.33;;;17.40;66.40;;;;;;5050405;28;20266;-67
2022/10/02 03:34:33;;;;;;;4.15;2.83;;;17.40;66.30;;;;;;5051348;28;20257;-66
2022/10/02 03:36:59;;;;;;;5.75;3.25;;;17.40;67.20;;;;;;5049792;28;20175;-67
2022/10/02 03:39:25;;;;;;;3.80;3.00;;;17.40;66.30;;;;;;5051124;28;20194;-68
2022/10/02 03:41:50;;;;;;;4.43;2.72;;;17.40;66.40;;;;;;5051920;28;20187;-67
2022/10/02 03:44:16;;;;;;;4.55;3.05;;;17.40;66.40;;;;;;5051294;28;20345;-68
2022/10/02 03:46:41;;;;;;;5.00;3.38;;;17.40;66.40;;;;;;5054949;28;20295;-68
2022/10/02 03:49:07;;;;;;;4.88;3.17;;;17.40;66.40;;;;;;5057884;28;20258;-68
2022/10/02 03:51:32;;;;;;;4.18;3.08;;;17.40;66.40;;;;;;5051708;28;20274;-68
2022/10/02 03:53:58;;;;;;;5.97;3.20;;;17.40;66.40;;;;;;5051656;28;20268;-67
2022/10/02 03:56:40;;;;;;;5.05;2.88;;;17.40;66.40;;;;;;5050506;28;20642;-67
2022/10/02 03:59:11;;;;;;;4.70;3.15;;;17.40;66.40;;;;;;5051372;28;20671;-68
2022/10/02 04:01:37;;;;;;;4.45;3.30;;;17.40;66.40;;;;;;5051047;28;20179;-68
2022/10/02 04:04:16;;;;;;;5.15;3.45;;;17.40;66.40;;;;;;5049494;28;20736;-68
2022/10/02 04:06:52;;;;;;;4.50;3.08;;;17.40;66.40;;;;;;5050626;28;20261;-68
2022/10/02 04:09:19;;;;;;;3.17;2.80;;;17.40;66.50;;;;;;5050869;28;20566;-68
2022/10/02 04:11:57;;;;;;;4.65;3.03;;;17.40;66.40;;;;;;5051505;28;20200;-68
2022/10/02 04:14:34;;;;;;;4.32;3.05;;;17.40;66.50;;;;;;5038294;28;20178;-68
2022/10/02 04:17:07;;;;;;;3.50;3.10;;;17.40;66.50;;;;;;5054932;28;20245;-69
2022/10/02 04:19:48;;;;;;;4.30;3.00;;;17.30;66.40;;;;;;5053818;28;20175;-68
2022/10/02 04:22:32;;;;;;;5.57;2.80;;;17.40;66.50;;;;;;5054336;28;20182;-68
2022/10/02 04:25:12;;;;;;;4.50;3.08;;;17.40;66.50;;;;;;5054941;28;20345;-68
2022/10/02 04:27:39;;;;;;;4.55;2.63;;;17.40;66.50;;;;;;5055703;28;20177;-68
2022/10/02 04:30:06;;;;;;;3.55;2.85;;;17.40;66.50;;;;;;5054983;28;20237;-68
2022/10/02 04:32:33;;;;;;;4.50;3.00;;;17.40;66.50;;;;;;5054700;28;20203;-67
2022/10/02 04:34:58;;;;;;;4.90;3.20;;;17.40;66.60;;;;;;5045855;28;20175;-67
2022/10/02 04:37:50;;;;;;;4.38;2.88;;;17.40;66.50;;;;;;5055885;28;20197;-67
2022/10/02 04:40:49;;;;;;;4.85;2.58;;;17.40;66.60;;;;;;5053353;28;20217;-67
2022/10/02 04:43:52;;;;;;;4.15;3.10;;;17.40;66.60;;;;;;5052833;28;20234;-67
2022/10/02 04:46:45;;;;;;;5.13;2.72;;;17.40;66.60;;;;;;5034098;28;20245;-67
2022/10/02 04:49:25;;;;;;;4.28;2.60;;;17.40;66.60;;;;;;5033966;28;20172;-67
2022/10/02 04:52:07;;;;;;;8.23;3.33;;;17.40;66.60;;;;;;5035133;28;20195;-67
2022/10/02 04:55:01;;;;;;;3.65;2.35;;;17.40;66.70;;;;;;5044114;28;20187;-67
2022/10/02 04:57:48;;;;;;;6.03;3.10;;;17.40;66.60;;;;;;5053981;28;20179;-67
2022/10/02 05:00:21;;;;;;;4.60;2.88;;;17.30;66.60;;;;;;5053024;28;20182;-67
2022/10/02 05:03:15;;;;;;;4.80;2.75;;;17.40;66.70;;;;;;5053290;28;20183;-67
2022/10/02 05:05:43;;;;;;;5.97;2.45;;;17.30;66.60;;;;;;5053359;28;20222;-67
2022/10/02 05:08:19;;;;;;;4.47;2.85;;;17.30;66.60;;;;;;5053483;28;20171;-67
2022/10/02 05:10:48;;;;;;;3.83;2.75;;;17.30;66.70;;;;;;5053182;28;20269;-66
2022/10/02 05:13:26;;;;;;;4.13;3.00;;;17.30;66.60;;;;;;5052695;28;20227;-67
2022/10/02 05:16:29;;;;;;;5.53;3.30;;;17.30;66.70;;;;;;5033964;28;20179;-66
2022/10/02 05:19:18;;;;;;;3.63;2.20;;;17.30;66.70;;;;;;5033772;28;20175;-67
2022/10/02 05:21:46;;;;;;;4.03;2.70;;;17.30;66.70;;;;;;5032949;28;20197;-67
2022/10/02 05:25:02;;;;;;;3.88;2.75;;;17.30;66.70;;;;;;5039531;28;20213;-67
2022/10/02 05:27:40;;;;;;;4.15;2.78;;;17.30;66.70;;;;;;5045236;28;20603;-67
2022/10/02 05:30:15;;;;;;;6.43;3.25;;;17.30;66.70;;;;;;5053389;28;20187;-66
2022/10/02 05:33:02;;;;;;;3.47;2.55;;;17.30;66.70;;;;;;5053512;28;20171;-66
2022/10/02 05:35:37;;;;;;;3.50;2.50;;;17.30;66.70;;;;;;5053428;28;20178;-66
2022/10/02 05:38:08;;;;;;;3.40;2.72;;;17.30;66.70;;;;;;5054127;28;20170;-66
2022/10/02 05:40:48;;;;;;;4.65;2.30;;;17.30;66.70;;;;;;5054122;28;20649;-67
2022/10/02 05:43:24;;;;;;;3.67;2.70;;;17.30;66.70;;;;;;5050977;28;20229;-68
2022/10/02 05:45:53;;;;;;;4.47;2.67;;;17.30;66.70;;;;;;5037700;28;20210;-67
2022/10/02 05:48:33;;;;;;;8.60;2.72;;;17.30;66.80;;;;;;5068427;28;20181;-67
2022/10/02 05:51:12;;;;;;;6.10;3.05;;;17.30;66.80;;;;;;5056003;28;20193;-67
2022/10/02 05:53:47;;;;;;;3.83;2.33;;;17.30;66.70;;;;;;5060022;28;20648;-67
2022/10/02 05:56:27;;;;;;;5.22;3.05;;;17.30;66.80;;;;;;5052399;28;20187;-67
2022/10/02 05:58:57;;;;;;;4.70;2.70;;;17.30;66.80;;;;;;5052406;28;20182;-68
2022/10/02 06:01:27;;;;;;;4.85;2.72;;;17.30;66.80;;;;;;5053722;28;20269;-67
2022/10/02 06:04:01;;;;;;;4.10;2.40;;;17.30;66.80;;;;;;5051848;28;20206;-67
2022/10/02 06:06:33;;;;;;;4.25;2.92;;;17.30;66.80;;;;;;5052771;28;20237;-67
2022/10/02 06:09:22;;;;;;;5.13;2.38;;;17.30;66.80;;;;;;5035996;28;20179;-67
2022/10/02 06:11:58;;;;;;;5.10;2.53;;;17.30;66.80;;;;;;5051262;28;20190;-67
2022/10/02 06:14:57;;;;;;;3.75;2.40;;;17.30;66.80;;;;;;5036628;28;20221;-67
2022/10/02 06:17:27;;;;;;;4.25;2.03;;;17.30;66.70;;;;;;5052036;28;20694;-68
2022/10/02 06:19:55;;;;;;;4.20;2.25;;;17.40;66.80;;;;;;5052851;28;20175;-67
2022/10/02 06:22:22;;;;;;;4.47;2.22;;;17.40;66.80;;;;;;5052113;28;20235;-68
2022/10/02 06:25:03;;;;;;;3.85;2.40;;;17.30;66.70;;;;;;5034930;28;20210;-67
2022/10/02 06:27:50;;;;;;;4.43;2.83;;;17.30;66.70;;;;;;5052343;28;20254;-67
2022/10/02 06:30:16;;;;;;;3.58;2.13;;;17.30;66.70;;;;;;5053454;28;20176;-67
2022/10/02 06:32:54;;;;;;;4.63;3.05;;;17.30;66.70;;;;;;5051711;28;20176;-66
2022/10/02 06:35:52;;;;;;;4.70;2.80;;;17.30;66.70;;;;;;5051628;28;20198;-67
2022/10/02 06:38:55;;;;;;;3.17;2.58;;;17.30;66.70;;;;;;5051953;28;20179;-67
2022/10/02 06:41:32;;;;;;;4.18;2.08;;;17.30;66.70;;;;;;5053012;28;20240;-67
2022/10/02 06:44:23;;;;;;;4.95;2.28;;;17.30;66.70;;;;;;5050945;28;20835;-68
2022/10/02 06:47:00;;;;;;;4.85;2.55;;;17.30;66.70;;;;;;5055488;28;20193;-67
2022/10/02 06:49:57;;;;;;;4.50;2.40;;;17.30;66.70;;;;;;5072202;28;20569;-67
2022/10/02 06:52:38;;;;;;;5.35;2.83;;;17.30;66.70;;;;;;5072395;28;20170;-67
2022/10/02 06:55:48;;;;;;;2.65;2.33;;;17.30;66.70;;;;;;5052673;28;20171;-67
2022/10/02 06:58:46;;;;;;;3.05;2.10;;;17.30;66.70;;;;;;5030806;28;20214;-68
2022/10/02 07:01:28;;;;;;;3.35;2.35;;;17.40;66.70;;;;;;5052047;28;20660;-67
2022/10/02 07:04:34;;;;;;;3.60;2.58;;;17.30;66.70;;;;;;5051411;28;20207;-67
2022/10/02 07:07:18;;;;;;;3.53;2.20;;;17.40;66.80;;;;;;5032164;28;20633;-67
2022/10/02 07:09:59;;;;;;;4.25;2.42;;;17.40;66.80;;;;;;5031789;28;20172;-67
2022/10/02 07:12:27;;;;;;;3.15;2.00;;;17.40;66.70;;;;;;5032940;28;20215;-67
2022/10/02 07:15:11;;;;;;;4.68;3.00;;;17.40;66.70;;;;;;5032654;28;20179;-67
2022/10/02 07:18:08;;;;;;;2.95;1.98;;;17.40;66.80;;;;;;5032820;28;20178;-67
2022/10/02 07:20:39;;;;;;;2.95;2.42;;;17.40;66.80;;;;;;5045207;28;20226;-67
2022/10/02 07:23:24;;;;;;;5.35;2.50;;;17.40;66.70;;;;;;5050993;28;20217;-67
2022/10/02 07:25:54;;;;;;;3.92;2.33;;;17.40;66.70;;;;;;5051914;28;20291;-67
2022/10/02 07:28:53;;;;;;;4.20;2.50;;;17.40;66.80;;;;;;5052010;28;20163;-67
2022/10/02 07:31:29;;;;;;;4.75;2.55;;;17.50;66.90;;;;;;5051302;28;20171;-67
2022/10/02 07:34:30;;;;;;;3.95;2.40;;;17.50;66.90;;;;;;5050984;28;20587;-66
2022/10/02 07:37:01;;;;;;;3.35;2.17;;;17.50;67.20;;;;;;5029880;28;20194;-67
2022/10/02 07:39:44;;;;;;;4.75;2.25;;;17.50;67.20;;;;;;5048723;28;20662;-67
2022/10/02 07:42:19;;;;;;;3.78;2.70;;;17.50;67.10;;;;;;5050483;28;20182;-68
2022/10/02 07:45:00;;;;;;;4.28;2.33;;;17.50;67.10;;;;;;5052535;28;20217;-67
2022/10/02 07:47:40;;;;;;;3.00;2.25;;;17.50;67.20;;;;;;5063911;28;20683;-68
2022/10/02 07:50:11;;;;;;;3.95;2.20;;;17.50;67.40;;;;;;5055477;28;20641;-68
2022/10/02 07:53:02;;;;;;;3.15;2.03;;;17.50;67.40;;;;;;5055781;28;20175;-67
2022/10/02 07:55:28;;;;;;;4.22;2.30;;;17.50;67.20;;;;;;5054929;28;20184;-68
2022/10/02 07:58:11;;;;;;;4.38;2.33;;;17.50;67.20;;;;;;5054518;28;20178;-68
2022/10/02 08:00:46;;;;;;;4.30;2.45;;;17.50;67.10;;;;;;5055446;28;20175;-67
2022/10/02 08:03:17;;;;;;;3.60;1.95;;;17.50;67.10;;;;;;5054086;28;21005;-68
2022/10/02 08:05:51;;;;;;;4.10;2.10;;;17.50;67.10;;;;;;5054752;28;20306;-68
2022/10/02 08:08:55;;;;;;;3.78;1.88;;;17.60;67.10;;;;;;5038759;28;20560;-68
2022/10/02 08:11:31;;;;;;;5.28;2.72;;;17.60;67.00;;;;;;5054465;28;20236;-68
2022/10/02 08:14:00;;;;;;;4.60;2.08;;;17.60;67.00;;;;;;5054953;28;20277;-68
2022/10/02 08:16:28;;;;;;;2.65;2.00;;;17.60;66.80;;;;;;5056159;28;20225;-68
2022/10/02 08:18:55;;;;;;;3.45;2.35;;;17.60;66.90;;;;;;5054958;28;20380;-68
2022/10/02 08:21:21;;;;;;;3.95;2.42;;;17.60;66.80;;;;;;5054894;28;20270;-68
2022/10/02 08:23:56;;;;;;;5.03;2.60;;;17.60;66.80;;;;;;5054699;28;20230;-68
2022/10/02 08:26:29;;;;;;;3.53;2.47;;;17.70;67.00;;;;;;5054430;28;20220;-68
2022/10/02 08:29:05;;;;;;;3.30;2.13;;;17.80;66.60;;;;;;5055975;28;20257;-67
2022/10/02 08:31:31;;;;;;;6.03;2.17;;;17.80;66.60;;;;;;5053775;28;20629;-67
2022/10/02 08:33:58;;;;;;;3.38;2.20;;;17.80;66.60;;;;;;5055541;28;20182;-67
2022/10/02 08:36:33;;;;;;;3.72;2.20;;;17.80;66.60;;;;;;5055043;28;20183;-68
2022/10/02 08:39:20;;;;;;;5.45;2.50;;;17.80;66.70;;;;;;5053751;28;20171;-69
2022/10/02 08:42:10;;;;;;;4.00;2.28;;;17.90;66.90;;;;;;5055650;28;20175;-67
2022/10/02 08:45:14;;;;;;;3.35;2.55;;;17.80;66.90;;;;;;5055608;28;20203;-68
2022/10/02 08:47:46;;;;;;;9.73;2.53;;;17.90;67.10;;;;;;5066628;28;20549;-67
2022/10/02 08:50:37;;;;;;;6.85;2.67;;;17.90;67.20;;;;;;5075160;28;20579;-65
2022/10/02 08:53:36;;;;;;;8.20;3.00;;;18.00;67.20;;;;;;5073623;28;20159;-62
2022/10/02 08:56:05;;;;;;;15.82;3.97;;;18.00;67.30;;;;;;5023486;28;20556;-68
2022/10/02 08:59:05;;;;;;;6.15;2.90;;;18.10;67.90;;;;;;5044010;28;20551;-66
2022/10/02 09:01:55;;;;;;;6.82;2.53;;;18.10;68.20;;;;;;5054161;28;20182;-67
2022/10/02 09:04:30;;;;;;;7.43;2.72;;;18.20;68.20;;;;;;5053886;28;20199;-69
2022/10/02 09:07:08;;;;;;;10.02;3.53;;;18.20;68.30;;;;;;5053847;28;20524;-66
2022/10/02 09:09:45;;;;;;;7.80;2.65;;;18.30;68.40;;;;;;5054306;28;20167;-67
2022/10/02 09:12:36;;;;;;;7.50;2.90;;;18.30;68.40;;;;;;5053548;28;20708;-68
2022/10/02 09:15:12;;;;;;;6.70;2.50;;;18.30;68.50;;;;;;5052439;28;20281;-69
2022/10/02 09:17:48;;;;;;;10.30;3.17;;;18.40;68.40;;;;;;5053945;28;20182;-67
2022/10/02 09:20:42;;;;;;;10.57;2.88;;;18.40;68.40;;;;;;5054530;28;20174;-67
2022/10/02 09:23:33;;;;;;;7.70;3.15;;;18.40;68.30;;;;;;5053404;28;20183;-67
2022/10/02 09:26:19;;;;;;;6.47;2.75;;;18.50;68.70;;;;;;5053255;28;20559;-66
2022/10/02 09:29:28;;;;;;;7.78;2.90;;;18.40;68.90;;;;;;5052973;28;20301;-66
2022/10/02 09:32:56;;;;;;;8.00;2.95;;;18.40;69.10;;;;;;5053284;28;20273;-65
2022/10/02 09:35:36;;;;;;;4.88;2.40;;;18.50;69.30;;;;;;5020529;28;20213;-65
2022/10/02 09:38:10;;;;;;;5.85;2.88;;;18.50;69.20;;;;;;5016233;28;20179;-66
2022/10/02 09:40:54;;;;;;;4.72;2.40;;;18.50;69.30;;;;;;5038024;28;20229;-65
2022/10/02 09:43:31;;;;;;;8.70;3.17;;;18.50;69.50;;;;;;5037417;28;20175;-66
2022/10/02 09:45:56;;;;;;;4.47;2.22;;;18.50;69.60;;;;;;5053175;28;20222;-65
2022/10/02 09:49:01;;;;;;;6.05;2.42;;;18.50;69.50;;;;;;5053076;28;20258;-66
2022/10/02 09:51:41;;;;;;;3.83;2.80;;;18.50;69.50;;;;;;5053262;28;20190;-64
2022/10/02 09:54:47;;;;;;;4.95;2.58;;;18.50;69.60;;;;;;5054182;28;20175;-65
2022/10/02 09:57:23;;;;;;;5.22;2.17;;;18.60;69.60;;;;;;5052550;28;20179;-66
2022/10/02 10:00:12;;;;;;;5.88;2.47;;;18.60;69.50;;;;;;5053388;28;20181;-63
2022/10/02 10:02:55;;;;;;;7.57;3.00;;;18.60;69.50;;;;;;5052263;28;20176;-65
2022/10/02 10:05:37;;;;;;;6.07;2.60;;;18.60;69.30;;;;;;5052743;28;20217;-64
2022/10/02 10:08:28;;;;;;;8.73;2.75;;;18.60;69.20;;;;;;5053806;28;20182;-66
2022/10/02 10:11:31;;;;;;;8.57;2.60;;;18.60;69.30;;;;;;5053217;28;20175;-68
2022/10/02 10:14:05;;;;;;;7.40;2.63;;;18.60;69.30;;;;;;5054174;28;20217;-68
2022/10/02 10:16:53;;;;;;;7.60;2.83;;;18.70;68.90;;;;;;5053426;28;20511;-68
2022/10/02 10:19:58;;;;;;;7.82;2.50;;;18.70;68.60;;;;;;5052335;28;20155;-69
2022/10/02 10:22:42;;;;;;;6.82;2.58;;;18.80;68.40;;;;;;5015791;28;20196;-67
2022/10/02 10:25:11;;;;;;;4.93;2.42;;;18.80;68.60;;;;;;5031193;28;20226;-66
2022/10/02 10:27:43;;;;;;;9.05;2.78;;;18.80;68.40;;;;;;5032988;28;20543;-65
2022/10/02 10:30:16;;;;;;;6.63;2.88;;;18.80;68.40;;;;;;5033672;28;20186;-64
2022/10/02 10:33:12;;;;;;;6.50;2.50;;;18.80;68.50;;;;;;5032002;28;20548;-66
2022/10/02 10:35:52;;;;;;;10.80;2.88;;;18.80;68.30;;;;;;5041070;28;20202;-62
2022/10/02 10:38:39;;;;;;;12.07;2.83;;;18.80;68.30;;;;;;5052642;28;20187;-67
2022/10/02 10:41:26;;;;;;;7.30;2.13;;;18.80;68.10;;;;;;5053279;28;20175;-68
2022/10/02 10:44:36;;;;;;;5.80;2.30;;;18.90;67.70;;;;;;5053518;28;20179;-67
2022/10/02 10:47:22;;;;;;;10.35;2.67;;;18.90;67.70;;;;;;5013771;28;20180;-67
2022/10/02 10:50:01;;;;;;;6.88;2.20;;;18.90;67.40;;;;;;5031000;28;20222;-63
2022/10/02 10:52:40;;;;;;;10.02;2.42;;;18.90;67.20;;;;;;5040748;28;20179;-67
2022/10/02 10:55:38;;;;;;;7.07;2.60;;;18.90;67.30;;;;;;5052157;28;20163;-66
2022/10/02 10:58:20;;;;;;;6.40;2.20;;;19.00;67.20;;;;;;5048069;28;20175;-65
2022/10/02 11:01:17;;;;;;;11.23;2.90;;;19.00;67.00;;;;;;5051661;28;20175;-64
2022/10/02 11:04:04;;;;;;;6.80;2.10;;;19.10;66.80;;;;;;5053317;28;20182;-66
2022/10/02 11:07:06;;;;;;;7.57;2.38;;;19.10;66.50;;;;;;5052063;28;20183;-66
2022/10/02 11:10:00;;;;;;;6.90;2.58;;;19.10;66.30;;;;;;5052367;28;20236;-66
2022/10/02 11:12:40;;;;;;;10.77;2.72;;;19.10;66.20;;;;;;5036067;28;20234;-66
2022/10/02 11:15:17;;;;;;;7.28;2.33;;;19.20;66.00;;;;;;5050950;28;20171;-66
2022/10/02 11:17:57;;;;;;;6.55;2.22;;;19.10;66.20;;;;;;5051904;28;20179;-64
2022/10/02 11:20:44;;;;;;;5.28;2.20;;;19.10;66.00;;;;;;5051916;28;20712;-65
2022/10/02 11:23:25;;;;;;;6.75;3.15;;;19.10;65.90;;;;;;5032674;28;20259;-64
2022/10/02 11:26:15;;;;;;;10.77;2.58;;;19.10;66.00;;;;;;5031693;28;20231;-64
2022/10/02 11:28:58;;;;;;;8.13;2.20;;;19.10;65.80;;;;;;5031462;28;20179;-64
2022/10/02 11:31:28;;;;;;;6.93;1.95;;;19.10;65.50;;;;;;5032106;28;20180;-66
2022/10/02 11:34:27;;;;;;;6.75;1.95;;;19.20;65.40;;;;;;5032468;28;20187;-64
2022/10/02 11:37:08;;;;;;;5.05;1.75;;;19.20;65.00;;;;;;5017107;28;20191;-64
2022/10/02 11:39:55;;;;;;;4.25;1.80;;;19.20;65.30;;;;;;5051845;28;20167;-65
2022/10/02 11:42:54;;;;;;;5.38;2.20;;;19.10;65.20;;;;;;5051204;28;20565;-66
2022/10/02 11:45:58;;;;;;;6.90;2.17;;;19.10;65.10;;;;;;5052224;28;20215;-64
2022/10/02 11:48:42;;;;;;;4.43;1.88;;;19.00;65.20;;;;;;5069102;28;20212;-64
2022/10/02 11:51:17;;;;;;;9.63;2.63;;;18.90;65.30;;;;;;5062473;28;20174;-63
2022/10/02 11:53:57;;;;;;;6.93;2.30;;;18.90;65.50;;;;;;5052319;28;20651;-63
2022/10/02 11:56:40;;;;;;;10.25;2.50;;;18.90;65.50;;;;;;5051011;28;20185;-63
2022/10/02 11:59:41;;;;;;;5.82;1.88;;;18.80;65.40;;;;;;5051429;28;20178;-65
2022/10/02 12:02:14;;;;;;;8.32;2.20;;;18.80;65.40;;;;;;5050440;28;20183;-67
2022/10/02 12:05:22;;;;;;;8.30;1.77;;;18.90;65.40;;;;;;5051468;28;20207;-66
2022/10/02 12:08:09;;;;;;;7.60;2.72;;;18.90;65.30;;;;;;5031882;28;20188;-70
2022/10/02 12:10:52;;;;;;;6.45;2.35;;;18.90;65.20;;;;;;5029922;28;20176;-69
2022/10/02 12:14:00;;;;;;;5.97;2.47;;;18.90;65.20;;;;;;5030833;28;20266;-70
2022/10/02 12:16:44;;;;;;;5.95;2.20;;;18.90;65.40;;;;;;5031912;28;20187;-70
2022/10/02 12:19:35;;;;;;;10.95;2.58;;;18.90;65.40;;;;;;5031343;28;20176;-70
2022/10/02 12:28:39;;;;;;;5.47;2.28;;;18.70;65.50;;;;;;5052051;28;20206;-69
2022/10/02 12:31:21;;;;;;;8.85;2.03;;;18.70;65.30;;;;;;5050074;28;20193;-69
2022/10/02 12:33:50;;;;;;;7.43;2.45;;;18.80;65.30;;;;;;5054329;28;20169;-69
2022/10/02 12:36:31;;;;;;;6.22;2.13;;;18.80;65.10;;;;;;5054403;28;20175;-69
2022/10/02 12:39:17;;;;;;;5.10;2.05;;;18.90;64.80;;;;;;5053685;28;20179;-70
2022/10/02 12:41:52;;;;;;;6.32;2.15;;;18.80;64.60;;;;;;5055103;28;20187;-70
2022/10/02 12:44:26;;;;;;;6.38;2.15;;;18.90;64.60;;;;;;5053810;28;20205;-71
2022/10/02 12:47:01;;;;;;;6.50;2.53;;;18.90;64.70;;;;;;5060230;28;20173;-69
2022/10/02 12:49:39;;;;;;;6.20;1.95;;;18.90;64.70;;;;;;5075669;28;20174;-69
2022/10/02 12:52:41;;;;;;;7.80;2.35;;;19.00;64.40;;;;;;5057655;28;20628;-70
2022/10/02 12:55:44;;;;;;;3.83;1.98;;;18.90;64.50;;;;;;5037414;28;20179;-68
2022/10/02 12:58:24;;;;;;;6.78;2.50;;;18.90;64.50;;;;;;5035513;28;20533;-69
2022/10/02 13:00:58;;;;;;;6.28;2.28;;;18.90;64.30;;;;;;5034770;28;20214;-69
2022/10/02 13:03:50;;;;;;;5.18;1.88;;;18.90;64.30;;;;;;5035632;28;20225;-68
2022/10/02 13:06:35;;;;;;;5.85;2.10;;;19.10;63.90;;;;;;5033289;28;20330;-68
2022/10/02 13:09:06;;;;;;;5.40;2.28;;;19.20;63.40;;;;;;5038025;28;20252;-68
2022/10/02 13:11:41;;;;;;;4.05;1.92;;;19.30;62.90;;;;;;5053786;28;20657;-68
2022/10/02 13:14:35;;;;;;;5.47;1.67;;;19.40;62.60;;;;;;5054183;28;20744;-69
2022/10/02 13:17:39;;;;;;;5.60;2.00;;;19.40;62.10;;;;;;5054163;28;20167;-69
2022/10/02 13:20:13;;;;;;;7.13;2.03;;;19.50;61.90;;;;;;5054099;28;20641;-69
2022/10/02 13:22:42;;;;;;;5.55;1.80;;;19.50;62.70;;;;;;5055027;28;20224;-69
2022/10/02 13:25:22;;;;;;;7.57;2.03;;;19.40;62.00;;;;;;5054391;28;20241;-68
2022/10/02 13:28:03;;;;;;;5.20;1.83;;;19.20;62.20;;;;;;5053308;28;20221;-69
2022/10/02 13:30:34;;;;;;;5.22;1.85;;;19.10;62.40;;;;;;5055084;28;20175;-69
2022/10/02 13:33:09;;;;;;;3.60;1.70;;;19.00;62.50;;;;;;5053419;28;20171;-69
2022/10/02 13:35:44;;;;;;;3.83;1.90;;;18.90;62.70;;;;;;5053194;28;20221;-69
2022/10/02 13:38:31;;;;;;;4.38;1.85;;;18.80;62.80;;;;;;5054569;28;20187;-70
2022/10/02 13:41:22;;;;;;;5.10;2.00;;;18.80;62.90;;;;;;5052752;28;20210;-69
2022/10/02 13:44:13;;;;;;;3.83;2.03;;;18.70;63.10;;;;;;5053309;28;20175;-70
2022/10/02 13:47:04;;;;;;;5.53;1.63;;;18.70;63.40;;;;;;5054002;28;20198;-69
2022/10/02 13:49:38;;;;;;;3.47;1.80;;;18.70;63.50;;;;;;5074170;28;20174;-69
2022/10/02 13:52:32;;;;;;;3.72;1.52;;;18.90;63.00;;;;;;5057267;28;20257;-69
2022/10/02 13:55:09;;;;;;;3.25;1.25;;;19.00;62.80;;;;;;5055223;28;20199;-69
2022/10/02 13:57:56;;;;;;;4.45;1.98;;;19.20;62.50;;;;;;5053169;28;20215;-69
2022/10/02 14:00:42;;;;;;;4.70;1.60;;;19.10;62.30;;;;;;5053590;28;20270;-69